Time;durP1;ratioP1;P1;durP2;ratioP2;P2;SDS_P1;SDS_P2;PMS_P1;PMS_P2;Temp;Humidity;BMP_temperature;BMP_pressure;BME280_temperature;BME280_humidity;BME280_pressure;Samples;Min_cycle;Max_cycle;Signal;HPM_P1;HPM_P2
2022/04/27 00:00:49;;;;;;;22.40;17.60;;;11.40;99.90;;;;;;5037744;28;20240;-74
2022/04/27 00:03:38;;;;;;;21.25;16.92;;;11.40;99.90;;;;;;5041249;28;20224;-72
2022/04/27 00:06:26;;;;;;;23.27;16.98;;;11.40;99.90;;;;;;5032334;28;20347;-73
2022/04/27 00:09:15;;;;;;;24.92;17.90;;;11.30;99.90;;;;;;5040950;28;20240;-73
2022/04/27 00:12:04;;;;;;;23.80;17.70;;;11.30;99.90;;;;;;5038620;28;20227;-73
2022/04/27 00:14:54;;;;;;;22.27;17.02;;;11.30;99.90;;;;;;5039322;28;20228;-73
2022/04/27 00:17:43;;;;;;;22.33;17.75;;;11.30;99.90;;;;;;5041702;28;20225;-73
2022/04/27 00:20:32;;;;;;;23.50;18.30;;;11.30;99.90;;;;;;5036477;28;20221;-75
2022/04/27 00:23:25;;;;;;;23.55;18.13;;;11.30;99.90;;;;;;5037112;28;20228;-74
2022/04/27 00:26:13;;;;;;;25.77;18.65;;;11.30;99.90;;;;;;5038077;28;20919;-73
2022/04/27 00:29:02;;;;;;;24.95;18.30;;;11.30;99.90;;;;;;5022564;28;20221;-73
2022/04/27 00:31:51;;;;;;;23.75;18.17;;;11.30;99.90;;;;;;5038047;28;20231;-73
2022/04/27 00:34:41;;;;;;;26.52;19.65;;;11.30;99.90;;;;;;5040380;28;20228;-72
2022/04/27 00:37:30;;;;;;;29.05;18.85;;;11.30;99.90;;;;;;5040395;28;20219;-72
2022/04/27 00:40:19;;;;;;;29.90;20.30;;;11.20;99.90;;;;;;5018933;28;20224;-73
2022/04/27 00:43:07;;;;;;;29.95;19.13;;;11.10;99.90;;;;;;5041897;28;20228;-73
2022/04/27 00:45:56;;;;;;;29.90;20.20;;;11.10;99.90;;;;;;5025058;28;20228;-73
2022/04/27 00:48:45;;;;;;;32.22;21.20;;;11.00;99.90;;;;;;5025220;28;20220;-73
2022/04/27 00:51:35;;;;;;;27.42;19.65;;;11.00;99.90;;;;;;5040247;28;20221;-73
2022/04/27 00:54:24;;;;;;;28.90;20.30;;;11.00;99.90;;;;;;5038451;28;20224;-74
2022/04/27 00:57:13;;;;;;;31.58;21.23;;;11.00;99.90;;;;;;5040219;28;20224;-73
2022/04/27 01:00:02;;;;;;;30.27;22.23;;;10.90;99.90;;;;;;5026718;28;20259;-73
2022/04/27 01:02:50;;;;;;;29.83;21.25;;;10.80;99.90;;;;;;5025638;28;20212;-73
2022/04/27 01:05:40;;;;;;;33.85;22.75;;;10.80;99.90;;;;;;5041401;28;20641;-73
2022/04/27 01:08:30;;;;;;;31.45;22.33;;;10.70;99.90;;;;;;5019807;28;20225;-73
2022/04/27 01:11:19;;;;;;;32.20;22.42;;;10.70;99.90;;;;;;5037727;28;20311;-72
2022/04/27 01:14:13;;;;;;;33.33;22.25;;;10.70;99.90;;;;;;5037885;28;20221;-73
2022/04/27 01:17:02;;;;;;;34.63;23.60;;;10.60;99.90;;;;;;5036139;28;20224;-73
2022/04/27 01:19:50;;;;;;;31.98;22.17;;;10.60;99.90;;;;;;5023878;28;21224;-73
2022/04/27 01:22:40;;;;;;;33.55;23.52;;;10.60;99.90;;;;;;5018406;28;20753;-74
2022/04/27 01:25:45;;;;;;;30.73;22.88;;;10.60;99.90;;;;;;5019425;28;20217;-73
2022/04/27 01:28:35;;;;;;;34.95;22.40;;;10.60;99.90;;;;;;5019818;28;20217;-74
2022/04/27 01:31:24;;;;;;;33.95;23.63;;;10.60;99.90;;;;;;5018058;28;20891;-73
2022/04/27 01:34:14;;;;;;;31.58;23.35;;;10.60;99.90;;;;;;5018600;28;20272;-72
2022/04/27 01:40:08;;;;;;;31.90;23.67;;;10.60;99.90;;;;;;5022516;28;20221;-74
2022/04/27 01:42:58;;;;;;;32.58;23.25;;;10.60;99.90;;;;;;5018738;28;20221;-73
2022/04/27 01:45:47;;;;;;;36.88;23.75;;;10.60;99.90;;;;;;5019866;28;20221;-73
2022/04/27 01:48:36;;;;;;;32.80;23.95;;;10.60;99.90;;;;;;5019293;28;20221;-72
2022/04/27 01:54:14;;;;;;;28.35;20.10;;;10.50;99.90;;;;;;5019196;28;20228;-73
2022/04/27 01:54:34;;;;;;;28.52;21.13;;;10.50;99.90;;;;;;5021693;28;20221;-72
2022/04/27 01:57:26;;;;;;;30.60;21.17;;;10.60;99.90;;;;;;5019713;28;20217;-72
2022/04/27 02:00:16;;;;;;;28.25;20.60;;;10.50;99.90;;;;;;5005109;28;20225;-71
2022/04/27 02:03:06;;;;;;;28.77;20.30;;;10.40;99.90;;;;;;5017194;28;20232;-73
2022/04/27 02:05:56;;;;;;;34.10;22.95;;;10.50;99.90;;;;;;5001888;28;20225;-73
2022/04/27 02:08:46;;;;;;;32.97;22.88;;;10.50;99.90;;;;;;5020094;28;20225;-72
2022/04/27 02:11:36;;;;;;;32.85;23.65;;;10.40;99.90;;;;;;5002698;28;20229;-73
2022/04/27 02:14:28;;;;;;;34.60;21.45;;;10.50;99.90;;;;;;4996757;28;20221;-73
2022/04/27 02:17:17;;;;;;;30.42;21.30;;;10.40;99.90;;;;;;5012402;28;20656;-72
2022/04/27 02:20:08;;;;;;;27.38;20.83;;;10.40;99.90;;;;;;5017329;28;20259;-75
2022/04/27 02:22:57;;;;;;;29.08;20.48;;;10.20;99.90;;;;;;5040074;28;20251;-73
2022/04/27 02:25:45;;;;;;;29.55;20.05;;;10.40;99.90;;;;;;5035255;28;20296;-73
2022/04/27 02:28:34;;;;;;;30.85;21.98;;;10.20;99.90;;;;;;5042848;28;20754;-72
2022/04/27 02:31:25;;;;;;;34.80;23.15;;;10.20;99.90;;;;;;5025728;28;20236;-72
2022/04/27 02:34:14;;;;;;;33.65;22.23;;;10.20;99.90;;;;;;5037821;28;20741;-72
2022/04/27 02:37:06;;;;;;;36.42;22.98;;;10.20;99.90;;;;;;5039304;28;20227;-73
2022/04/27 02:39:57;;;;;;;31.30;21.63;;;10.20;99.90;;;;;;5039957;28;20267;-74
2022/04/27 02:42:46;;;;;;;29.15;21.10;;;10.00;99.90;;;;;;5045162;28;20231;-73
2022/04/27 02:45:35;;;;;;;31.40;21.13;;;10.00;99.90;;;;;;5037944;28;20352;-73
2022/04/27 02:48:25;;;;;;;30.92;21.27;;;10.00;99.90;;;;;;5025109;28;20244;-72
2022/04/27 02:54:21;;;;;;;32.17;21.38;;;9.90;99.90;;;;;;5037477;28;20609;-73
2022/04/27 02:57:10;;;;;;;32.50;23.38;;;9.80;99.90;;;;;;5032622;28;20534;-72
2022/04/27 02:59:58;;;;;;;32.63;23.00;;;9.80;99.90;;;;;;5041470;28;20217;-72
2022/04/27 03:02:47;;;;;;;32.40;23.02;;;9.80;99.90;;;;;;5041031;28;20217;-73
2022/04/27 03:05:38;;;;;;;35.13;23.73;;;9.90;99.90;;;;;;5021668;28;20278;-72
2022/04/27 03:08:27;;;;;;;31.45;22.92;;;9.80;99.90;;;;;;5021696;28;20228;-74
2022/04/27 03:11:16;;;;;;;32.25;23.33;;;9.70;99.90;;;;;;5040666;28;20228;-72
2022/04/27 03:14:24;;;;;;;35.05;23.90;;;9.80;99.90;;;;;;5038674;28;20817;-72
2022/04/27 03:17:13;;;;;;;34.30;24.35;;;9.80;99.90;;;;;;5038290;28;20233;-73
2022/04/27 03:20:04;;;;;;;34.22;23.30;;;9.70;99.90;;;;;;5034976;28;20240;-73
2022/04/27 03:22:55;;;;;;;35.50;24.85;;;9.70;99.90;;;;;;5027179;28;20219;-73
2022/04/27 03:25:44;;;;;;;34.30;23.88;;;9.70;99.90;;;;;;5039540;28;20221;-72
2022/04/27 03:28:34;;;;;;;33.67;22.92;;;9.70;99.90;;;;;;5035952;28;21042;-73
2022/04/27 03:31:24;;;;;;;33.05;23.55;;;9.60;99.90;;;;;;5037626;28;20359;-74
2022/04/27 03:34:13;;;;;;;30.40;22.13;;;9.40;99.90;;;;;;5039551;28;20221;-74
2022/04/27 03:37:01;;;;;;;34.40;23.50;;;9.30;99.90;;;;;;5034033;28;20221;-73
2022/04/27 03:39:53;;;;;;;34.17;24.52;;;9.50;99.90;;;;;;5027090;28;20221;-73
2022/04/27 03:42:43;;;;;;;33.88;23.40;;;9.40;99.90;;;;;;5035431;28;20220;-73
2022/04/27 03:45:32;;;;;;;32.67;24.20;;;9.30;99.90;;;;;;5039523;28;20232;-73
2022/04/27 03:48:23;;;;;;;35.15;24.35;;;9.20;99.90;;;;;;5043108;28;20220;-74
2022/04/27 03:51:12;;;;;;;36.08;24.08;;;9.30;99.90;;;;;;5022530;28;20306;-73
2022/04/27 03:54:04;;;;;;;35.80;24.25;;;9.20;99.90;;;;;;5023340;28;20216;-73
2022/04/27 03:56:54;;;;;;;32.72;22.83;;;9.30;99.90;;;;;;5024318;28;20229;-72
2022/04/27 03:59:43;;;;;;;36.45;24.65;;;9.20;99.90;;;;;;5036278;28;20233;-72
2022/04/27 04:02:34;;;;;;;35.38;24.13;;;9.30;99.90;;;;;;5032498;28;20432;-73
2022/04/27 04:05:25;;;;;;;36.50;23.52;;;9.30;99.90;;;;;;5036023;28;20992;-71
2022/04/27 04:08:14;;;;;;;33.63;23.85;;;9.20;99.90;;;;;;5038036;28;20225;-72
2022/04/27 04:11:02;;;;;;;38.85;24.48;;;9.10;99.90;;;;;;5041886;28;20220;-72
2022/04/27 04:14:09;;;;;;;35.70;24.05;;;9.20;99.90;;;;;;5026346;28;20585;-73
2022/04/27 04:17:13;;;;;;;34.20;23.73;;;9.10;99.90;;;;;;5039710;28;20227;-71
2022/04/27 04:20:23;;;;;;;40.28;24.63;;;9.00;99.90;;;;;;5022449;28;20240;-73
2022/04/27 04:23:23;;;;;;;33.22;22.85;;;8.90;99.90;;;;;;5015138;28;20242;-73
2022/04/27 04:29:39;;;;;;;35.70;23.90;;;9.10;99.90;;;;;;5020934;28;20271;-72
2022/04/27 04:32:28;;;;;;;35.17;23.90;;;9.30;99.90;;;;;;5004149;28;20251;-73
2022/04/27 04:35:31;;;;;;;37.42;23.23;;;9.20;99.90;;;;;;5004298;28;20225;-73
2022/04/27 04:38:20;;;;;;;34.30;23.08;;;9.30;99.90;;;;;;5020265;28;20998;-73
2022/04/27 04:41:14;;;;;;;34.78;23.02;;;9.30;99.90;;;;;;5020986;28;20217;-73
2022/04/27 04:44:13;;;;;;;28.73;21.00;;;9.60;99.90;;;;;;5021817;28;20650;-72
2022/04/27 04:47:31;;;;;;;30.58;20.80;;;9.40;99.90;;;;;;5018772;28;20256;-72
2022/04/27 04:50:40;;;;;;;35.22;21.48;;;9.20;99.90;;;;;;5011704;28;20245;-73
2022/04/27 04:54:01;;;;;;;27.10;18.38;;;9.40;99.90;;;;;;4995010;28;20218;-76
2022/04/27 04:57:04;;;;;;;28.38;19.10;;;9.30;99.90;;;;;;5006937;28;20257;-76
2022/04/27 05:00:18;;;;;;;29.55;19.55;;;9.30;99.90;;;;;;5011230;28;20217;-76
2022/04/27 05:03:40;;;;;;;23.55;16.55;;;9.30;99.90;;;;;;5000376;28;20218;-76
2022/04/27 05:06:47;;;;;;;25.27;17.65;;;9.30;99.90;;;;;;5022412;28;20241;-76
2022/04/27 05:09:51;;;;;;;28.20;19.27;;;9.40;99.90;;;;;;5009764;28;20230;-75
2022/04/27 05:12:55;;;;;;;28.35;18.95;;;9.80;99.90;;;;;;5023875;28;20232;-76
2022/04/27 05:16:13;;;;;;;28.15;17.33;;;9.70;99.90;;;;;;4981449;28;20225;-76
2022/04/27 05:19:32;;;;;;;25.25;16.52;;;9.90;99.90;;;;;;5012051;28;20244;-75
2022/04/27 05:22:39;;;;;;;24.25;17.25;;;9.80;99.90;;;;;;5024029;28;20221;-75
2022/04/27 05:25:53;;;;;;;26.02;17.73;;;9.80;99.90;;;;;;5008076;28;20762;-75
2022/04/27 05:32:18;;;;;;;21.63;16.35;;;9.60;99.90;;;;;;5024461;28;20229;-75
2022/04/27 05:35:31;;;;;;;24.58;16.02;;;10.00;99.90;;;;;;5023959;28;20224;-74
2022/04/27 05:38:44;;;;;;;22.30;15.38;;;10.10;99.90;;;;;;5025758;28;20596;-75
2022/04/27 05:42:03;;;;;;;21.10;15.18;;;10.00;99.90;;;;;;5021955;28;20288;-75
2022/04/27 05:45:12;;;;;;;23.70;14.90;;;10.10;99.90;;;;;;5024316;28;20320;-75
2022/04/27 05:48:17;;;;;;;21.05;14.45;;;10.30;99.90;;;;;;5007701;28;20245;-75
2022/04/27 05:51:22;;;;;;;24.80;15.52;;;10.30;99.90;;;;;;5025516;28;20736;-76
2022/04/27 05:54:23;;;;;;;22.92;14.38;;;10.20;99.90;;;;;;5024616;28;20221;-74
2022/04/27 05:57:24;;;;;;;21.30;14.40;;;10.40;99.90;;;;;;5008062;28;20260;-74
2022/04/27 06:00:26;;;;;;;21.58;13.90;;;10.60;99.90;;;;;;5010751;28;20236;-74
2022/04/27 06:03:35;;;;;;;25.90;14.50;;;10.60;99.90;;;;;;5027033;28;20675;-74
2022/04/27 06:06:30;;;;;;;21.35;14.52;;;10.60;99.90;;;;;;5013265;28;20751;-75
2022/04/27 06:09:21;;;;;;;22.25;14.45;;;10.80;99.90;;;;;;5021844;28;20225;-76
2022/04/27 06:12:18;;;;;;;22.45;14.13;;;10.70;99.90;;;;;;5029758;28;20237;-76
2022/04/27 06:15:25;;;;;;;22.40;14.93;;;11.00;99.90;;;;;;5022981;28;20364;-75
2022/04/27 06:18:19;;;;;;;22.45;15.25;;;10.80;99.90;;;;;;5014217;28;20228;-76
2022/04/27 06:21:08;;;;;;;22.85;13.50;;;10.90;99.90;;;;;;5047848;28;20253;-76
2022/04/27 06:24:04;;;;;;;23.70;14.10;;;10.90;99.90;;;;;;5030301;28;20220;-76
2022/04/27 06:26:54;;;;;;;22.85;13.45;;;10.90;99.90;;;;;;5044722;28;20228;-75
2022/04/27 06:29:43;;;;;;;19.17;13.60;;;11.10;99.90;;;;;;5038610;28;20244;-73
2022/04/27 06:32:32;;;;;;;21.58;13.00;;;11.30;99.90;;;;;;5030987;28;20240;-74
2022/04/27 06:35:24;;;;;;;23.15;13.10;;;11.50;99.90;;;;;;5043211;28;20228;-78
2022/04/27 06:38:16;;;;;;;19.75;13.48;;;11.50;99.90;;;;;;5038465;28;20221;-73
2022/04/27 06:41:39;;;;;;;17.20;12.95;;;12.20;99.90;;;;;;5028330;28;20295;-74
2022/04/27 06:44:36;;;;;;;18.92;11.52;;;12.30;99.90;;;;;;5037594;28;20239;-75
2022/04/27 06:47:49;;;;;;;15.10;12.13;;;12.50;99.90;;;;;;5043742;28;20217;-74
2022/04/27 06:50:56;;;;;;;17.58;11.52;;;13.60;99.90;;;;;;5046255;28;20265;-74
2022/04/27 06:54:17;;;;;;;17.85;11.55;;;14.30;99.90;;;;;;5018693;28;20308;-74
2022/04/27 06:57:26;;;;;;;15.27;11.23;;;14.80;99.90;;;;;;5032084;28;21023;-73
2022/04/27 07:00:25;;;;;;;14.95;9.63;;;15.30;99.90;;;;;;5034613;28;20304;-72
2022/04/27 07:03:15;;;;;;;16.63;10.48;;;14.60;99.90;;;;;;5044025;28;20316;-72
2022/04/27 07:06:04;;;;;;;17.42;10.93;;;15.00;99.90;;;;;;5041921;28;20679;-73
2022/04/27 07:08:52;;;;;;;15.65;10.23;;;15.50;99.90;;;;;;5030409;28;20594;-73
2022/04/27 07:11:41;;;;;;;14.27;9.70;;;16.10;99.90;;;;;;5045781;28;20232;-74
2022/04/27 07:14:31;;;;;;;19.25;10.57;;;15.90;99.90;;;;;;5047951;28;20224;-73
2022/04/27 07:17:20;;;;;;;15.93;9.55;;;17.00;99.90;;;;;;5045402;28;20243;-73
2022/04/27 07:20:09;;;;;;;12.65;8.85;;;18.00;94.30;;;;;;5043278;28;20331;-73
2022/04/27 07:22:58;;;;;;;13.00;7.70;;;16.60;94.80;;;;;;5045896;28;20623;-73
2022/04/27 07:25:47;;;;;;;14.35;8.00;;;16.20;94.40;;;;;;5048608;28;20229;-73
2022/04/27 07:28:36;;;;;;;12.02;7.55;;;15.90;94.00;;;;;;5044292;28;20224;-73
2022/04/27 07:31:27;;;;;;;12.90;7.88;;;16.10;94.10;;;;;;5040402;28;20436;-73
2022/04/27 07:34:16;;;;;;;10.23;6.85;;;16.40;95.30;;;;;;5042537;28;20221;-73
2022/04/27 07:37:05;;;;;;;11.32;7.30;;;16.70;92.20;;;;;;5038116;28;20227;-72
2022/04/27 07:39:54;;;;;;;12.02;7.35;;;17.50;92.00;;;;;;5032029;28;20221;-74
2022/04/27 07:42:43;;;;;;;9.93;7.72;;;18.10;90.50;;;;;;5044167;28;20233;-72
2022/04/27 07:45:31;;;;;;;10.98;6.97;;;18.40;89.70;;;;;;5041825;28;20232;-73
2022/04/27 07:48:21;;;;;;;14.00;6.93;;;19.80;81.70;;;;;;5026444;28;20225;-72
2022/04/27 07:51:10;;;;;;;10.32;7.07;;;20.00;78.40;;;;;;5042275;28;20228;-74
2022/04/27 07:54:00;;;;;;;10.45;6.88;;;18.90;78.90;;;;;;5040420;28;20221;-71
2022/04/27 07:56:48;;;;;;;14.18;7.40;;;19.00;79.10;;;;;;5047603;28;20223;-73
2022/04/27 07:59:37;;;;;;;10.30;7.00;;;19.80;78.60;;;;;;5046351;28;20223;-72
2022/04/27 08:02:26;;;;;;;8.20;5.97;;;21.80;75.00;;;;;;5045465;28;20223;-73
2022/04/27 08:05:16;;;;;;;9.95;6.00;;;21.80;72.20;;;;;;5045341;28;20259;-74
2022/04/27 08:08:07;;;;;;;12.35;6.30;;;22.00;68.80;;;;;;5044244;28;20224;-74
2022/04/27 08:10:55;;;;;;;9.30;6.50;;;21.80;71.00;;;;;;5045506;28;20217;-73
2022/04/27 08:13:44;;;;;;;9.63;5.90;;;23.90;67.50;;;;;;5023863;28;20224;-75
2022/04/27 08:16:33;;;;;;;8.05;5.88;;;25.60;60.90;;;;;;5043064;28;20251;-73
2022/04/27 08:19:22;;;;;;;7.22;6.13;;;24.70;58.60;;;;;;5031805;28;20765;-74
2022/04/27 08:22:12;;;;;;;7.95;6.45;;;24.60;59.90;;;;;;5047514;28;20323;-73
2022/04/27 08:25:01;;;;;;;7.63;6.10;;;24.30;60.90;;;;;;5039086;28;20217;-72
2022/04/27 08:27:49;;;;;;;7.63;5.93;;;26.40;55.90;;;;;;5043686;28;20235;-73
2022/04/27 08:30:39;;;;;;;7.13;5.78;;;23.10;60.50;;;;;;5040119;28;20217;-72
2022/04/27 08:33:28;;;;;;;7.68;5.18;;;24.10;59.90;;;;;;5044869;28;20224;-74
2022/04/27 08:36:17;;;;;;;6.65;5.30;;;26.00;56.70;;;;;;5048700;28;20224;-72
2022/04/27 08:39:22;;;;;;;8.38;6.03;;;22.70;58.30;;;;;;5040549;28;20232;-72
2022/04/27 08:42:10;;;;;;;6.88;5.47;;;25.20;58.40;;;;;;5043672;28;20232;-72
2022/04/27 08:45:00;;;;;;;6.05;4.40;;;25.50;53.60;;;;;;5043088;28;20220;-73
2022/04/27 08:47:50;;;;;;;8.05;4.70;;;20.70;60.30;;;;;;5044201;28;20602;-71
2022/04/27 08:50:40;;;;;;;6.40;5.38;;;25.00;55.70;;;;;;5029764;28;20614;-72
2022/04/27 08:53:29;;;;;;;8.50;5.95;;;27.30;52.80;;;;;;5039125;28;20225;-72
2022/04/27 08:56:19;;;;;;;10.60;6.00;;;27.90;52.80;;;;;;5041964;28;20217;-73
2022/04/27 08:59:08;;;;;;;9.15;5.55;;;25.80;53.10;;;;;;5041713;28;20240;-73
2022/04/27 09:01:57;;;;;;;6.32;4.95;;;26.70;53.80;;;;;;5042328;28;20217;-73
2022/04/27 09:05:05;;;;;;;5.88;5.20;;;26.30;49.80;;;;;;5026221;28;20220;-73
2022/04/27 09:07:56;;;;;;;7.38;4.68;;;21.30;56.00;;;;;;5044623;28;20595;-73
2022/04/27 09:10:45;;;;;;;8.07;4.30;;;19.40;59.60;;;;;;5048214;28;20221;-73
2022/04/27 09:13:37;;;;;;;8.63;4.68;;;19.50;61.90;;;;;;5045435;28;20229;-74
2022/04/27 09:16:27;;;;;;;6.03;4.38;;;19.00;62.00;;;;;;5043123;28;20236;-72
2022/04/27 09:22:22;;;;;;;3.75;3.03;;;18.90;63.60;;;;;;5032429;28;20218;-73
2022/04/27 09:25:11;;;;;;;5.28;2.90;;;17.20;60.40;;;;;;5046444;28;20315;-72
2022/04/27 09:28:02;;;;;;;10.93;3.22;;;18.20;60.00;;;;;;5050353;28;20228;-71
2022/04/27 09:30:53;;;;;;;5.60;2.92;;;18.00;62.00;;;;;;5041963;28;20249;-72
2022/04/27 09:33:41;;;;;;;5.18;3.38;;;17.00;63.70;;;;;;5047054;28;20228;-72
2022/04/27 09:36:31;;;;;;;4.50;2.90;;;16.80;65.90;;;;;;5043289;28;20783;-73
2022/04/27 09:39:25;;;;;;;4.60;3.33;;;20.90;58.90;;;;;;5046537;28;20256;-73
2022/04/27 09:42:14;;;;;;;4.72;3.25;;;22.80;54.30;;;;;;5040496;28;20232;-73
2022/04/27 09:45:18;;;;;;;3.38;2.85;;;22.10;56.10;;;;;;5045680;28;20231;-74
2022/04/27 09:48:11;;;;;;;3.92;3.28;;;24.50;52.80;;;;;;5045557;28;20224;-74
2022/04/27 09:51:01;;;;;;;6.03;3.72;;;23.60;49.50;;;;;;5047516;28;20240;-73
2022/04/27 09:53:51;;;;;;;3.92;2.90;;;22.70;53.90;;;;;;5045984;28;20595;-73
2022/04/27 09:56:41;;;;;;;6.28;3.42;;;22.00;51.30;;;;;;5044260;28;20220;-74
2022/04/27 09:59:32;;;;;;;5.18;3.00;;;19.60;55.80;;;;;;5032049;28;20227;-74
2022/04/27 10:02:25;;;;;;;6.60;2.83;;;17.90;58.50;;;;;;5041602;28;20314;-74
2022/04/27 10:05:16;;;;;;;3.95;2.70;;;18.00;58.60;;;;;;5045362;28;20225;-74
2022/04/27 10:08:06;;;;;;;3.72;3.10;;;18.90;57.40;;;;;;5048885;28;20910;-75
2022/04/27 10:10:55;;;;;;;4.82;3.10;;;19.20;57.60;;;;;;5032052;28;20228;-73
2022/04/27 10:13:47;;;;;;;3.72;3.15;;;20.70;55.20;;;;;;5044061;28;20243;-74
2022/04/27 10:16:36;;;;;;;6.20;3.00;;;21.30;54.10;;;;;;5045726;28;20213;-73
2022/04/27 10:19:25;;;;;;;5.60;3.10;;;20.60;53.40;;;;;;5043492;28;20235;-74
2022/04/27 10:22:30;;;;;;;6.22;3.15;;;19.20;57.10;;;;;;5050378;28;20216;-73
2022/04/27 10:25:20;;;;;;;4.45;3.05;;;21.00;56.20;;;;;;5043042;28;20228;-74
2022/04/27 10:28:18;;;;;;;6.15;3.13;;;19.40;56.00;;;;;;5046691;28;20232;-74
2022/04/27 10:31:08;;;;;;;3.28;2.78;;;18.50;58.70;;;;;;5045829;28;20217;-74
2022/04/27 10:33:57;;;;;;;4.97;2.72;;;18.70;58.10;;;;;;5040936;28;20241;-74
2022/04/27 10:36:47;;;;;;;4.18;2.50;;;19.20;58.00;;;;;;5044489;28;20355;-73
2022/04/27 10:39:37;;;;;;;6.03;2.78;;;17.70;57.60;;;;;;5044620;28;20236;-73
2022/04/27 10:42:30;;;;;;;4.15;2.95;;;17.80;59.30;;;;;;5045829;28;20223;-74
2022/04/27 10:45:23;;;;;;;3.72;3.38;;;18.00;58.90;;;;;;5044376;28;20799;-74
2022/04/27 10:48:18;;;;;;;3.22;2.88;;;19.90;58.70;;;;;;5045717;28;20228;-74
2022/04/27 10:51:07;;;;;;;3.47;3.13;;;20.50;54.90;;;;;;5023426;28;20219;-74
2022/04/27 10:54:05;;;;;;;3.63;2.80;;;20.30;54.70;;;;;;5047491;28;20248;-74
2022/04/27 10:57:30;;;;;;;5.10;2.88;;;19.20;57.00;;;;;;5040514;28;20220;-73
2022/04/27 11:00:21;;;;;;;5.28;3.00;;;21.10;54.30;;;;;;5047791;28;20323;-72
2022/04/27 11:03:30;;;;;;;4.80;3.20;;;20.80;53.40;;;;;;5045073;28;20366;-74
2022/04/27 11:06:21;;;;;;;5.07;3.58;;;20.90;54.30;;;;;;5045656;28;20225;-75
2022/04/27 11:09:16;;;;;;;4.82;2.78;;;21.50;53.60;;;;;;5043607;28;20315;-76
2022/04/27 11:12:05;;;;;;;3.33;2.50;;;20.10;54.00;;;;;;5045734;28;20303;-76
2022/04/27 11:14:59;;;;;;;4.80;2.67;;;19.30;55.60;;;;;;5042956;28;20221;-86
2022/04/27 11:17:56;;;;;;;4.32;2.90;;;18.80;56.20;;;;;;5043923;28;20377;-77
2022/04/27 11:20:45;;;;;;;4.78;2.88;;;18.70;56.70;;;;;;5030837;28;20228;-74
2022/04/27 11:23:34;;;;;;;4.20;2.85;;;18.20;56.90;;;;;;5042619;28;20239;-76
2022/04/27 11:26:23;;;;;;;3.72;2.70;;;17.80;58.30;;;;;;5041742;28;20296;-79
2022/04/27 11:29:13;;;;;;;4.38;2.60;;;20.00;57.20;;;;;;5042705;28;20228;-76
2022/04/27 11:32:05;;;;;;;3.50;2.97;;;23.10;52.50;;;;;;5041794;28;20351;-75
2022/04/27 11:34:55;;;;;;;4.57;3.13;;;24.40;50.90;;;;;;5042110;28;20917;-75
2022/04/27 11:37:44;;;;;;;2.80;2.60;;;23.00;49.40;;;;;;5044016;28;20220;-76
2022/04/27 11:40:37;;;;;;;2.90;2.60;;;24.20;48.20;;;;;;5043510;28;20382;-75
2022/04/27 11:43:27;;;;;;;4.13;2.90;;;24.60;47.30;;;;;;5041429;28;20229;-74
2022/04/27 11:46:17;;;;;;;3.60;2.88;;;21.90;47.90;;;;;;5043572;28;20235;-73
2022/04/27 11:49:11;;;;;;;4.07;3.13;;;21.10;49.80;;;;;;5026892;28;20244;-75
2022/04/27 11:52:01;;;;;;;6.85;3.05;;;20.70;50.80;;;;;;5047275;28;20224;-77
2022/04/27 11:54:50;;;;;;;3.72;2.85;;;20.10;52.80;;;;;;5045808;28;20213;-82
2022/04/27 11:57:40;;;;;;;5.90;2.92;;;20.40;53.10;;;;;;5044515;28;20235;-76
2022/04/27 12:00:31;;;;;;;5.40;3.15;;;22.20;51.90;;;;;;5044932;28;20228;-75
2022/04/27 12:03:21;;;;;;;5.72;3.03;;;24.80;47.60;;;;;;5046817;28;20223;-76
2022/04/27 12:06:10;;;;;;;4.43;2.90;;;23.20;47.40;;;;;;5050009;28;20313;-76
2022/04/27 12:09:02;;;;;;;5.88;2.47;;;23.80;47.30;;;;;;5049965;28;20363;-79
2022/04/27 12:11:53;;;;;;;2.95;2.50;;;22.10;47.70;;;;;;5047937;28;20252;-78
2022/04/27 12:14:42;;;;;;;2.92;2.72;;;21.80;48.90;;;;;;5046133;28;20221;-77
2022/04/27 12:17:47;;;;;;;3.40;2.45;;;19.90;50.40;;;;;;5045769;28;20240;-76
2022/04/27 12:20:39;;;;;;;3.75;2.40;;;18.70;53.30;;;;;;5028198;28;20224;-77
2022/04/27 12:24:29;;;;;;;3.28;2.22;;;18.20;52.40;;;;;;5044253;27;21128;-73
2022/04/27 12:27:19;;;;;;;2.67;2.40;;;18.50;54.10;;;;;;5035276;28;20228;-72
2022/04/27 12:30:09;;;;;;;4.93;2.10;;;18.30;54.70;;;;;;5031544;28;20216;-72
2022/04/27 12:32:59;;;;;;;3.47;2.40;;;18.90;54.80;;;;;;5037275;28;20219;-72
2022/04/27 12:39:03;;;;;;;4.28;2.28;;;17.40;55.30;;;;;;5062874;28;20236;-75
2022/04/27 12:42:06;;;;;;;3.08;2.53;;;17.40;56.90;;;;;;5051335;28;20224;-73
2022/04/27 12:44:59;;;;;;;3.70;2.50;;;17.60;56.40;;;;;;5050707;28;20220;-73
2022/04/27 12:47:50;;;;;;;3.95;2.50;;;17.20;56.90;;;;;;5049447;28;20235;-73
2022/04/27 12:50:48;;;;;;;3.67;2.30;;;17.20;56.80;;;;;;5052134;28;20216;-74
2022/04/27 12:53:37;;;;;;;4.85;2.53;;;17.00;56.90;;;;;;5071469;28;20224;-73
2022/04/27 12:56:33;;;;;;;3.55;2.38;;;17.60;56.50;;;;;;5046424;28;20236;-74
2022/04/27 12:59:23;;;;;;;2.58;2.13;;;17.90;56.00;;;;;;5052667;28;20344;-74
2022/04/27 13:02:12;;;;;;;4.35;2.10;;;18.20;56.00;;;;;;5030382;28;20252;-75
2022/04/27 13:05:01;;;;;;;6.10;2.70;;;17.80;55.60;;;;;;5029671;28;20314;-71
2022/04/27 13:07:50;;;;;;;9.40;2.38;;;18.10;55.50;;;;;;5037244;28;20224;-72
2022/04/27 13:13:46;;;;;;;3.45;2.67;;;19.00;55.30;;;;;;5050642;28;20228;-74
2022/04/27 13:16:37;;;;;;;3.47;2.45;;;18.70;55.30;;;;;;5052410;28;20327;-77
2022/04/27 13:19:26;;;;;;;5.93;2.10;;;17.80;54.90;;;;;;5049719;28;20287;-77
2022/04/27 13:22:15;;;;;;;2.95;2.25;;;17.00;55.40;;;;;;5048829;28;20231;-76
2022/04/27 13:25:04;;;;;;;4.28;2.10;;;16.90;55.70;;;;;;5070138;28;20595;-73
2022/04/27 13:27:53;;;;;;;5.05;2.05;;;17.60;54.90;;;;;;5069402;28;20299;-74
2022/04/27 13:30:42;;;;;;;2.72;2.03;;;17.40;54.50;;;;;;5053914;28;20216;-75
2022/04/27 13:33:32;;;;;;;3.05;2.10;;;17.80;54.50;;;;;;5071502;28;20231;-72
2022/04/27 13:36:21;;;;;;;2.53;2.22;;;17.40;55.00;;;;;;5055003;28;20248;-73
2022/04/27 13:39:10;;;;;;;4.13;2.35;;;17.30;54.20;;;;;;5061931;28;20308;-74
2022/04/27 13:41:59;;;;;;;5.90;3.13;;;16.80;56.50;;;;;;5066543;28;20575;-73
2022/04/27 13:44:48;;;;;;;3.72;2.47;;;17.00;57.50;;;;;;5055551;28;20718;-73
2022/04/27 13:47:37;;;;;;;4.53;2.47;;;16.90;57.20;;;;;;5054777;28;20224;-73
2022/04/27 13:50:28;;;;;;;6.40;2.80;;;16.70;57.90;;;;;;5051779;28;20350;-73
2022/04/27 13:53:18;;;;;;;3.75;2.67;;;17.50;57.20;;;;;;5050614;28;20232;-73
2022/04/27 13:56:07;;;;;;;3.13;2.22;;;17.60;56.40;;;;;;5053972;28;20212;-75
2022/04/27 13:58:56;;;;;;;2.70;2.50;;;17.20;57.20;;;;;;5056311;28;20216;-74
2022/04/27 14:01:45;;;;;;;3.97;2.70;;;16.80;57.60;;;;;;5058791;28;20918;-73
2022/04/27 14:04:34;;;;;;;4.95;1.95;;;17.20;58.00;;;;;;5067150;28;20278;-74
2022/04/27 14:07:25;;;;;;;3.75;2.42;;;17.10;57.20;;;;;;5078216;27;20224;-74
2022/04/27 14:10:16;;;;;;;3.58;2.50;;;17.10;57.80;;;;;;5078542;28;20681;-74
2022/04/27 14:13:11;;;;;;;3.40;2.38;;;17.60;56.90;;;;;;5078926;28;20223;-74
2022/04/27 14:19:07;;;;;;;3.65;2.47;;;17.90;56.10;;;;;;5078337;28;20594;-72
2022/04/27 14:21:57;;;;;;;4.32;2.40;;;17.80;56.00;;;;;;5081866;28;20312;-72
2022/04/27 14:24:48;;;;;;;4.75;2.72;;;17.80;56.90;;;;;;5073846;28;20368;-74
2022/04/27 14:27:36;;;;;;;10.15;2.92;;;17.60;57.10;;;;;;5087072;28;20304;-74
2022/04/27 14:30:26;;;;;;;4.13;2.40;;;17.50;57.10;;;;;;5079342;27;20701;-73
2022/04/27 14:33:16;;;;;;;4.88;2.35;;;17.30;57.20;;;;;;5076140;28;20314;-73
2022/04/27 14:36:05;;;;;;;4.63;2.20;;;16.80;58.10;;;;;;5079362;28;20245;-73
2022/04/27 14:38:55;;;;;;;3.55;2.50;;;16.70;58.60;;;;;;5079548;27;20236;-73
2022/04/27 14:41:46;;;;;;;5.13;2.40;;;16.70;58.60;;;;;;5079716;28;20223;-73
2022/04/27 14:44:34;;;;;;;5.15;2.13;;;16.60;58.90;;;;;;5077882;28;20319;-73
2022/04/27 14:47:23;;;;;;;6.15;2.50;;;16.40;59.00;;;;;;5098968;27;20239;-72
2022/04/27 14:50:12;;;;;;;2.40;2.20;;;16.40;59.20;;;;;;5074984;27;20237;-72
2022/04/27 14:53:03;;;;;;;3.72;2.60;;;16.30;59.00;;;;;;5078122;28;20483;-71
2022/04/27 14:55:52;;;;;;;3.47;2.42;;;16.60;59.00;;;;;;5101682;27;20234;-71
2022/04/27 14:58:43;;;;;;;3.85;2.65;;;16.80;58.40;;;;;;5079150;28;20228;-71
2022/04/27 15:01:32;;;;;;;6.20;2.70;;;16.60;58.60;;;;;;5071580;28;20220;-71
2022/04/27 15:04:21;;;;;;;4.05;2.75;;;16.70;59.70;;;;;;5073014;28;20604;-73
2022/04/27 15:07:10;;;;;;;4.45;2.85;;;16.80;59.00;;;;;;5071924;27;20258;-73
2022/04/27 15:09:59;;;;;;;4.93;2.60;;;16.70;59.30;;;;;;5073371;28;20346;-72
2022/04/27 15:12:47;;;;;;;6.10;2.80;;;16.70;59.10;;;;;;5068069;28;20299;-73
2022/04/27 15:15:38;;;;;;;4.80;2.70;;;17.00;59.50;;;;;;5075802;28;20655;-73